sensor_id;sensor_type;location;lat;lon;timestamp;temperature;humidity
728;DHT22;347;48.780;9.158;2023-09-18T00:00:14;23.00;23.30
728;DHT22;347;48.780;9.158;2023-09-18T00:02:40;23.00;22.90
728;DHT22;347;48.780;9.158;2023-09-18T00:05:05;23.00;22.70
728;DHT22;347;48.780;9.158;2023-09-18T00:07:31;23.00;22.70
728;DHT22;347;48.780;9.158;2023-09-18T00:09:56;23.10;23.00
728;DHT22;347;48.780;9.158;2023-09-18T00:12:22;23.10;23.00
728;DHT22;347;48.780;9.158;2023-09-18T00:14:48;23.10;23.20
728;DHT22;347;48.780;9.158;2023-09-18T00:17:15;23.10;23.30
728;DHT22;347;48.780;9.158;2023-09-18T00:19:42;23.00;23.20
728;DHT22;347;48.780;9.158;2023-09-18T00:22:08;23.10;23.20
728;DHT22;347;48.780;9.158;2023-09-18T00:24:33;23.10;23.10
728;DHT22;347;48.780;9.158;2023-09-18T00:26:59;23.10;23.30
728;DHT22;347;48.780;9.158;2023-09-18T00:29:24;23.00;23.30
728;DHT22;347;48.780;9.158;2023-09-18T00:31:50;23.10;23.50
728;DHT22;347;48.780;9.158;2023-09-18T00:34:16;23.00;23.40
728;DHT22;347;48.780;9.158;2023-09-18T00:36:41;23.00;23.70
728;DHT22;347;48.780;9.158;2023-09-18T00:39:07;23.00;23.70
728;DHT22;347;48.780;9.158;2023-09-18T00:41:33;23.00;23.80
728;DHT22;347;48.780;9.158;2023-09-18T00:43:58;22.90;23.70
728;DHT22;347;48.780;9.158;2023-09-18T00:46:25;22.90;23.60
728;DHT22;347;48.780;9.158;2023-09-18T00:48:53;22.90;23.60
728;DHT22;347;48.780;9.158;2023-09-18T00:51:19;22.90;23.60
728;DHT22;347;48.780;9.158;2023-09-18T00:53:45;22.90;23.60
728;DHT22;347;48.780;9.158;2023-09-18T00:56:13;22.90;23.70
728;DHT22;347;48.780;9.158;2023-09-18T00:58:39;22.90;23.70
728;DHT22;347;48.780;9.158;2023-09-18T01:01:05;22.90;23.90
728;DHT22;347;48.780;9.158;2023-09-18T01:03:31;22.90;23.90
728;DHT22;347;48.780;9.158;2023-09-18T01:05:57;22.90;23.80
728;DHT22;347;48.780;9.158;2023-09-18T01:08:23;22.90;23.90
728;DHT22;347;48.780;9.158;2023-09-18T01:13:23;22.90;23.60
728;DHT22;347;48.780;9.158;2023-09-18T01:16:02;22.90;24.00
728;DHT22;347;48.780;9.158;2023-09-18T01:18:30;22.90;23.60
728;DHT22;347;48.780;9.158;2023-09-18T01:20:56;22.80;23.60
728;DHT22;347;48.780;9.158;2023-09-18T01:23:21;22.90;23.60
728;DHT22;347;48.780;9.158;2023-09-18T01:25:47;22.80;23.60
728;DHT22;347;48.780;9.158;2023-09-18T01:28:13;22.80;23.60
728;DHT22;347;48.780;9.158;2023-09-18T01:30:38;22.90;23.40
728;DHT22;347;48.780;9.158;2023-09-18T01:33:04;22.90;22.80
728;DHT22;347;48.780;9.158;2023-09-18T01:35:31;23.00;22.70
728;DHT22;347;48.780;9.158;2023-09-18T01:37:59;23.00;22.50
728;DHT22;347;48.780;9.158;2023-09-18T01:40:26;23.10;22.50
728;DHT22;347;48.780;9.158;2023-09-18T01:42:52;23.10;22.40
728;DHT22;347;48.780;9.158;2023-09-18T01:45:18;23.10;22.50
728;DHT22;347;48.780;9.158;2023-09-18T01:47:45;23.10;22.60
728;DHT22;347;48.780;9.158;2023-09-18T01:50:10;23.10;22.80
728;DHT22;347;48.780;9.158;2023-09-18T01:52:36;23.10;22.70
728;DHT22;347;48.780;9.158;2023-09-18T01:55:02;23.10;22.30
728;DHT22;347;48.780;9.158;2023-09-18T01:57:31;23.10;22.10
728;DHT22;347;48.780;9.158;2023-09-18T01:59:57;23.20;21.10
728;DHT22;347;48.780;9.158;2023-09-18T02:02:22;23.30;20.70
728;DHT22;347;48.780;9.158;2023-09-18T02:04:48;23.40;20.10
728;DHT22;347;48.780;9.158;2023-09-18T02:07:13;23.50;22.60
728;DHT22;347;48.780;9.158;2023-09-18T02:09:39;23.40;22.80
728;DHT22;347;48.780;9.158;2023-09-18T02:12:05;23.30;23.90
728;DHT22;347;48.780;9.158;2023-09-18T02:14:31;23.20;23.90
728;DHT22;347;48.780;9.158;2023-09-18T02:16:57;23.20;24.70
728;DHT22;347;48.780;9.158;2023-09-18T02:19:22;23.20;24.80
728;DHT22;347;48.780;9.158;2023-09-18T02:21:48;23.10;26.20
728;DHT22;347;48.780;9.158;2023-09-18T02:24:14;23.00;26.80
728;DHT22;347;48.780;9.158;2023-09-18T02:26:39;23.00;27.10
728;DHT22;347;48.780;9.158;2023-09-18T02:29:08;23.00;28.40
728;DHT22;347;48.780;9.158;2023-09-18T02:31:39;23.00;27.90
728;DHT22;347;48.780;9.158;2023-09-18T02:34:04;23.00;28.20
728;DHT22;347;48.780;9.158;2023-09-18T02:36:30;22.90;27.30
728;DHT22;347;48.780;9.158;2023-09-18T02:38:56;22.90;26.50
728;DHT22;347;48.780;9.158;2023-09-18T02:41:21;22.80;27.70
728;DHT22;347;48.780;9.158;2023-09-18T02:43:47;22.80;26.10
728;DHT22;347;48.780;9.158;2023-09-18T02:46:12;22.70;26.90
728;DHT22;347;48.780;9.158;2023-09-18T02:48:38;22.70;25.50
728;DHT22;347;48.780;9.158;2023-09-18T02:51:05;22.70;25.80
728;DHT22;347;48.780;9.158;2023-09-18T02:53:31;22.70;24.60
728;DHT22;347;48.780;9.158;2023-09-18T02:55:58;22.60;24.70
728;DHT22;347;48.780;9.158;2023-09-18T02:58:24;22.60;24.80
728;DHT22;347;48.780;9.158;2023-09-18T03:00:52;22.50;25.00
728;DHT22;347;48.780;9.158;2023-09-18T03:03:19;22.50;25.60
728;DHT22;347;48.780;9.158;2023-09-18T03:05:44;22.40;25.30
728;DHT22;347;48.780;9.158;2023-09-18T03:08:11;22.30;25.50
728;DHT22;347;48.780;9.158;2023-09-18T03:10:41;22.30;25.50
728;DHT22;347;48.780;9.158;2023-09-18T03:13:08;22.30;25.80
728;DHT22;347;48.780;9.158;2023-09-18T03:15:34;22.30;25.30
728;DHT22;347;48.780;9.158;2023-09-18T03:18:01;22.40;24.40
728;DHT22;347;48.780;9.158;2023-09-18T03:20:28;22.40;25.00
728;DHT22;347;48.780;9.158;2023-09-18T03:22:58;22.40;25.60
728;DHT22;347;48.780;9.158;2023-09-18T03:25:25;22.20;26.00
728;DHT22;347;48.780;9.158;2023-09-18T03:27:52;22.20;26.50
728;DHT22;347;48.780;9.158;2023-09-18T03:30:18;22.10;26.80
728;DHT22;347;48.780;9.158;2023-09-18T03:32:44;22.10;26.40
728;DHT22;347;48.780;9.158;2023-09-18T03:35:11;22.00;26.20
728;DHT22;347;48.780;9.158;2023-09-18T03:37:43;22.00;26.40
728;DHT22;347;48.780;9.158;2023-09-18T03:40:09;22.00;27.30
728;DHT22;347;48.780;9.158;2023-09-18T03:42:34;22.00;27.30
728;DHT22;347;48.780;9.158;2023-09-18T03:45:00;22.10;26.90
728;DHT22;347;48.780;9.158;2023-09-18T03:47:26;22.20;26.80
728;DHT22;347;48.780;9.158;2023-09-18T03:49:51;22.30;26.70
728;DHT22;347;48.780;9.158;2023-09-18T03:52:17;22.30;26.60
728;DHT22;347;48.780;9.158;2023-09-18T03:54:42;22.30;26.60
728;DHT22;347;48.780;9.158;2023-09-18T03:57:08;22.30;27.00
728;DHT22;347;48.780;9.158;2023-09-18T03:59:33;22.20;26.90
728;DHT22;347;48.780;9.158;2023-09-18T04:01:59;22.10;26.20
728;DHT22;347;48.780;9.158;2023-09-18T04:04:24;22.10;26.30
728;DHT22;347;48.780;9.158;2023-09-18T04:06:50;22.10;26.10
728;DHT22;347;48.780;9.158;2023-09-18T04:09:15;22.10;26.00
728;DHT22;347;48.780;9.158;2023-09-18T04:11:41;22.10;25.90
728;DHT22;347;48.780;9.158;2023-09-18T04:14:06;22.20;26.10
728;DHT22;347;48.780;9.158;2023-09-18T04:16:32;22.20;25.70
728;DHT22;347;48.780;9.158;2023-09-18T04:19:01;22.30;25.70
728;DHT22;347;48.780;9.158;2023-09-18T04:21:27;22.30;25.60
728;DHT22;347;48.780;9.158;2023-09-18T04:23:52;22.30;26.40
728;DHT22;347;48.780;9.158;2023-09-18T04:26:23;22.40;25.90
728;DHT22;347;48.780;9.158;2023-09-18T04:28:49;22.30;26.40
728;DHT22;347;48.780;9.158;2023-09-18T04:31:14;22.20;26.40
728;DHT22;347;48.780;9.158;2023-09-18T04:33:40;22.30;26.30
728;DHT22;347;48.780;9.158;2023-09-18T04:36:05;22.40;26.50
728;DHT22;347;48.780;9.158;2023-09-18T04:38:31;22.40;26.50
728;DHT22;347;48.780;9.158;2023-09-18T04:41:00;22.40;26.50
728;DHT22;347;48.780;9.158;2023-09-18T04:43:26;22.40;26.60
728;DHT22;347;48.780;9.158;2023-09-18T04:45:52;22.40;26.80
728;DHT22;347;48.780;9.158;2023-09-18T04:48:17;22.40;26.70
728;DHT22;347;48.780;9.158;2023-09-18T04:50:46;22.40;26.80
728;DHT22;347;48.780;9.158;2023-09-18T04:53:12;22.40;27.00
728;DHT22;347;48.780;9.158;2023-09-18T04:55:38;22.40;26.90
728;DHT22;347;48.780;9.158;2023-09-18T04:58:04;22.40;27.20
728;DHT22;347;48.780;9.158;2023-09-18T05:00:30;22.30;27.20
728;DHT22;347;48.780;9.158;2023-09-18T05:02:57;22.30;27.60
728;DHT22;347;48.780;9.158;2023-09-18T05:05:26;22.30;27.60
728;DHT22;347;48.780;9.158;2023-09-18T05:07:52;22.20;28.20
728;DHT22;347;48.780;9.158;2023-09-18T05:10:17;22.20;27.90
728;DHT22;347;48.780;9.158;2023-09-18T05:12:43;22.20;27.90
728;DHT22;347;48.780;9.158;2023-09-18T05:15:09;22.10;28.50
728;DHT22;347;48.780;9.158;2023-09-18T05:17:43;22.10;28.00
728;DHT22;347;48.780;9.158;2023-09-18T05:20:10;22.10;28.00
728;DHT22;347;48.780;9.158;2023-09-18T05:22:44;22.00;27.90
728;DHT22;347;48.780;9.158;2023-09-18T05:25:10;22.00;28.40
728;DHT22;347;48.780;9.158;2023-09-18T05:27:37;21.90;28.50
728;DHT22;347;48.780;9.158;2023-09-18T05:30:17;21.80;28.60
728;DHT22;347;48.780;9.158;2023-09-18T05:32:43;21.70;28.60
728;DHT22;347;48.780;9.158;2023-09-18T05:35:10;21.70;28.70
728;DHT22;347;48.780;9.158;2023-09-18T05:37:38;21.60;28.90
728;DHT22;347;48.780;9.158;2023-09-18T05:40:05;21.60;29.20
728;DHT22;347;48.780;9.158;2023-09-18T05:42:33;21.70;29.40
728;DHT22;347;48.780;9.158;2023-09-18T05:44:58;21.70;29.60
728;DHT22;347;48.780;9.158;2023-09-18T05:47:24;21.70;29.50
728;DHT22;347;48.780;9.158;2023-09-18T05:49:49;21.70;29.90
728;DHT22;347;48.780;9.158;2023-09-18T05:52:15;21.60;29.60
728;DHT22;347;48.780;9.158;2023-09-18T05:54:40;21.50;29.50
728;DHT22;347;48.780;9.158;2023-09-18T05:57:06;21.50;29.70
728;DHT22;347;48.780;9.158;2023-09-18T05:59:33;21.40;29.70
728;DHT22;347;48.780;9.158;2023-09-18T06:01:58;21.40;29.60
728;DHT22;347;48.780;9.158;2023-09-18T06:04:24;21.40;29.40
728;DHT22;347;48.780;9.158;2023-09-18T06:06:50;21.30;29.70
728;DHT22;347;48.780;9.158;2023-09-18T06:09:16;21.40;29.70
728;DHT22;347;48.780;9.158;2023-09-18T06:11:42;21.30;29.80
728;DHT22;347;48.780;9.158;2023-09-18T06:14:07;21.30;30.20
728;DHT22;347;48.780;9.158;2023-09-18T06:16:33;21.30;31.00
728;DHT22;347;48.780;9.158;2023-09-18T06:18:59;21.20;30.90
728;DHT22;347;48.780;9.158;2023-09-18T06:21:25;21.20;31.70
728;DHT22;347;48.780;9.158;2023-09-18T06:23:51;21.20;32.50
728;DHT22;347;48.780;9.158;2023-09-18T06:26:17;21.20;32.00
728;DHT22;347;48.780;9.158;2023-09-18T06:28:43;21.20;32.80
728;DHT22;347;48.780;9.158;2023-09-18T06:31:08;21.20;32.30
728;DHT22;347;48.780;9.158;2023-09-18T06:33:34;21.10;32.60
728;DHT22;347;48.780;9.158;2023-09-18T06:35:59;21.10;33.70
728;DHT22;347;48.780;9.158;2023-09-18T06:38:25;21.10;34.20
728;DHT22;347;48.780;9.158;2023-09-18T06:40:50;21.00;35.50
728;DHT22;347;48.780;9.158;2023-09-18T06:43:17;21.00;35.70
728;DHT22;347;48.780;9.158;2023-09-18T06:45:42;21.00;36.10
728;DHT22;347;48.780;9.158;2023-09-18T06:48:08;20.90;36.60
728;DHT22;347;48.780;9.158;2023-09-18T06:50:33;20.80;37.00
728;DHT22;347;48.780;9.158;2023-09-18T06:52:59;20.70;37.60
728;DHT22;347;48.780;9.158;2023-09-18T06:55:25;20.70;37.80
728;DHT22;347;48.780;9.158;2023-09-18T06:57:50;20.70;38.70
728;DHT22;347;48.780;9.158;2023-09-18T07:00:17;20.70;38.10
728;DHT22;347;48.780;9.158;2023-09-18T07:02:46;20.70;38.10
728;DHT22;347;48.780;9.158;2023-09-18T07:05:12;20.70;38.00
728;DHT22;347;48.780;9.158;2023-09-18T07:07:37;20.80;38.70
728;DHT22;347;48.780;9.158;2023-09-18T07:10:03;20.90;38.80
728;DHT22;347;48.780;9.158;2023-09-18T07:12:29;20.80;38.60
728;DHT22;347;48.780;9.158;2023-09-18T07:14:55;20.80;38.20
728;DHT22;347;48.780;9.158;2023-09-18T07:17:20;20.90;36.40
728;DHT22;347;48.780;9.158;2023-09-18T07:19:46;20.90;36.10
728;DHT22;347;48.780;9.158;2023-09-18T07:22:11;21.10;33.90
728;DHT22;347;48.780;9.158;2023-09-18T07:24:37;21.20;31.80
728;DHT22;347;48.780;9.158;2023-09-18T07:27:06;21.20;31.90
728;DHT22;347;48.780;9.158;2023-09-18T07:29:31;21.30;31.00
728;DHT22;347;48.780;9.158;2023-09-18T07:31:58;21.30;31.00
728;DHT22;347;48.780;9.158;2023-09-18T07:34:24;21.40;31.10
728;DHT22;347;48.780;9.158;2023-09-18T07:36:49;21.50;30.70
728;DHT22;347;48.780;9.158;2023-09-18T07:39:19;21.40;29.00
728;DHT22;347;48.780;9.158;2023-09-18T07:41:44;21.40;29.50
728;DHT22;347;48.780;9.158;2023-09-18T07:44:10;21.50;29.40
728;DHT22;347;48.780;9.158;2023-09-18T07:46:35;21.40;30.40
728;DHT22;347;48.780;9.158;2023-09-18T07:49:01;21.40;31.10
728;DHT22;347;48.780;9.158;2023-09-18T07:51:27;21.40;30.30
728;DHT22;347;48.780;9.158;2023-09-18T07:53:52;21.40;29.70
728;DHT22;347;48.780;9.158;2023-09-18T07:56:18;21.40;29.30
728;DHT22;347;48.780;9.158;2023-09-18T07:58:44;21.40;29.70
728;DHT22;347;48.780;9.158;2023-09-18T08:01:12;21.40;29.20
728;DHT22;347;48.780;9.158;2023-09-18T08:03:37;21.40;30.00
728;DHT22;347;48.780;9.158;2023-09-18T08:06:03;21.50;29.50
728;DHT22;347;48.780;9.158;2023-09-18T08:08:30;21.50;29.40
728;DHT22;347;48.780;9.158;2023-09-18T08:10:57;21.50;29.20
728;DHT22;347;48.780;9.158;2023-09-18T08:13:23;21.50;29.00
728;DHT22;347;48.780;9.158;2023-09-18T08:15:49;21.50;28.50
728;DHT22;347;48.780;9.158;2023-09-18T08:18:16;21.50;28.30
728;DHT22;347;48.780;9.158;2023-09-18T08:20:42;21.50;28.20
728;DHT22;347;48.780;9.158;2023-09-18T08:23:09;21.40;28.50
728;DHT22;347;48.780;9.158;2023-09-18T08:25:34;21.40;28.40
728;DHT22;347;48.780;9.158;2023-09-18T08:28:00;21.50;28.20
728;DHT22;347;48.780;9.158;2023-09-18T08:30:25;21.40;28.30
728;DHT22;347;48.780;9.158;2023-09-18T08:32:51;21.40;28.40
728;DHT22;347;48.780;9.158;2023-09-18T08:35:17;21.30;28.90
728;DHT22;347;48.780;9.158;2023-09-18T08:37:42;21.40;29.50
728;DHT22;347;48.780;9.158;2023-09-18T08:40:12;21.40;30.00
728;DHT22;347;48.780;9.158;2023-09-18T08:42:45;21.30;31.00
728;DHT22;347;48.780;9.158;2023-09-18T08:47:57;21.20;30.90
728;DHT22;347;48.780;9.158;2023-09-18T08:50:24;21.10;32.70
728;DHT22;347;48.780;9.158;2023-09-18T08:52:50;21.10;32.50
728;DHT22;347;48.780;9.158;2023-09-18T08:55:16;21.00;32.30
728;DHT22;347;48.780;9.158;2023-09-18T08:57:44;20.90;33.10
728;DHT22;347;48.780;9.158;2023-09-18T09:00:12;20.90;34.90
728;DHT22;347;48.780;9.158;2023-09-18T09:02:45;20.80;33.00
728;DHT22;347;48.780;9.158;2023-09-18T09:05:11;20.60;33.90
728;DHT22;347;48.780;9.158;2023-09-18T09:07:37;20.60;35.30
728;DHT22;347;48.780;9.158;2023-09-18T09:10:03;20.50;35.60
728;DHT22;347;48.780;9.158;2023-09-18T09:12:49;20.50;36.60
728;DHT22;347;48.780;9.158;2023-09-18T09:15:15;20.40;37.10
728;DHT22;347;48.780;9.158;2023-09-18T09:17:42;20.40;37.40
728;DHT22;347;48.780;9.158;2023-09-18T09:20:09;20.30;38.30
728;DHT22;347;48.780;9.158;2023-09-18T09:22:37;20.30;40.00
728;DHT22;347;48.780;9.158;2023-09-18T09:25:03;20.20;40.50
728;DHT22;347;48.780;9.158;2023-09-18T09:27:28;20.20;41.90
728;DHT22;347;48.780;9.158;2023-09-18T09:30:00;20.10;41.50
728;DHT22;347;48.780;9.158;2023-09-18T09:32:31;20.10;42.60
728;DHT22;347;48.780;9.158;2023-09-18T09:34:57;20.10;42.20
728;DHT22;347;48.780;9.158;2023-09-18T09:37:31;20.10;43.20
728;DHT22;347;48.780;9.158;2023-09-18T09:39:56;20.00;42.70
728;DHT22;347;48.780;9.158;2023-09-18T09:42:24;20.00;43.40
728;DHT22;347;48.780;9.158;2023-09-18T09:45:11;20.00;43.30
728;DHT22;347;48.780;9.158;2023-09-18T09:47:37;20.10;43.30
728;DHT22;347;48.780;9.158;2023-09-18T09:50:08;20.10;42.30
728;DHT22;347;48.780;9.158;2023-09-18T09:52:35;20.20;43.00
728;DHT22;347;48.780;9.158;2023-09-18T09:55:21;20.20;42.30
728;DHT22;347;48.780;9.158;2023-09-18T09:57:50;20.20;42.70
728;DHT22;347;48.780;9.158;2023-09-18T10:00:16;20.30;42.90
728;DHT22;347;48.780;9.158;2023-09-18T10:02:54;20.20;42.10
728;DHT22;347;48.780;9.158;2023-09-18T10:05:21;20.30;42.20
728;DHT22;347;48.780;9.158;2023-09-18T10:07:49;20.20;42.30
728;DHT22;347;48.780;9.158;2023-09-18T10:10:16;20.20;42.20
728;DHT22;347;48.780;9.158;2023-09-18T10:12:43;20.30;42.30
728;DHT22;347;48.780;9.158;2023-09-18T10:15:11;20.30;42.20
728;DHT22;347;48.780;9.158;2023-09-18T10:17:42;20.30;42.30
728;DHT22;347;48.780;9.158;2023-09-18T10:20:15;20.40;43.10
728;DHT22;347;48.780;9.158;2023-09-18T10:22:54;20.40;43.20
728;DHT22;347;48.780;9.158;2023-09-18T10:25:23;20.50;42.80
728;DHT22;347;48.780;9.158;2023-09-18T10:27:51;20.50;41.70
728;DHT22;347;48.780;9.158;2023-09-18T10:30:23;20.50;41.90
728;DHT22;347;48.780;9.158;2023-09-18T10:32:51;20.40;42.00
728;DHT22;347;48.780;9.158;2023-09-18T10:35:17;20.50;43.20
728;DHT22;347;48.780;9.158;2023-09-18T10:37:46;20.50;42.00
728;DHT22;347;48.780;9.158;2023-09-18T10:40:12;20.50;42.90
728;DHT22;347;48.780;9.158;2023-09-18T10:42:39;20.40;43.90
728;DHT22;347;48.780;9.158;2023-09-18T10:45:09;20.40;44.90
728;DHT22;347;48.780;9.158;2023-09-18T10:47:42;20.30;42.90
728;DHT22;347;48.780;9.158;2023-09-18T10:50:10;20.20;43.10
728;DHT22;347;48.780;9.158;2023-09-18T10:52:43;20.20;43.50
728;DHT22;347;48.780;9.158;2023-09-18T10:55:11;20.10;43.00
728;DHT22;347;48.780;9.158;2023-09-18T10:57:37;20.10;42.90
728;DHT22;347;48.780;9.158;2023-09-18T11:00:04;20.10;42.80
728;DHT22;347;48.780;9.158;2023-09-18T11:02:42;20.00;43.50
728;DHT22;347;48.780;9.158;2023-09-18T11:05:08;20.00;43.00
728;DHT22;347;48.780;9.158;2023-09-18T11:07:34;20.00;42.70
728;DHT22;347;48.780;9.158;2023-09-18T11:09:59;20.00;44.20
728;DHT22;347;48.780;9.158;2023-09-18T11:12:45;20.10;43.20
728;DHT22;347;48.780;9.158;2023-09-18T11:15:26;20.00;42.40
728;DHT22;347;48.780;9.158;2023-09-18T11:17:59;20.10;43.80
728;DHT22;347;48.780;9.158;2023-09-18T11:20:28;20.10;44.50
728;DHT22;347;48.780;9.158;2023-09-18T11:23:15;20.00;44.50
728;DHT22;347;48.780;9.158;2023-09-18T11:25:42;20.00;44.60
728;DHT22;347;48.780;9.158;2023-09-18T11:28:12;19.90;44.20
728;DHT22;347;48.780;9.158;2023-09-18T11:30:51;20.00;44.00
728;DHT22;347;48.780;9.158;2023-09-18T11:33:35;19.90;43.90
728;DHT22;347;48.780;9.158;2023-09-18T11:36:06;19.90;44.60
728;DHT22;347;48.780;9.158;2023-09-18T11:38:34;20.00;43.90
728;DHT22;347;48.780;9.158;2023-09-18T11:41:01;20.00;44.10
728;DHT22;347;48.780;9.158;2023-09-18T11:43:44;20.00;42.80
728;DHT22;347;48.780;9.158;2023-09-18T11:46:11;20.00;40.30
728;DHT22;347;48.780;9.158;2023-09-18T11:48:38;20.10;40.80
728;DHT22;347;48.780;9.158;2023-09-18T11:51:07;20.10;40.40
728;DHT22;347;48.780;9.158;2023-09-18T11:53:37;20.20;40.80
728;DHT22;347;48.780;9.158;2023-09-18T11:56:10;20.10;40.40
728;DHT22;347;48.780;9.158;2023-09-18T11:58:50;20.20;41.00
728;DHT22;347;48.780;9.158;2023-09-18T12:01:17;20.20;40.50
728;DHT22;347;48.780;9.158;2023-09-18T12:03:43;20.20;40.60
728;DHT22;347;48.780;9.158;2023-09-18T12:06:09;20.20;40.60
728;DHT22;347;48.780;9.158;2023-09-18T12:08:38;20.20;42.50
728;DHT22;347;48.780;9.158;2023-09-18T12:11:05;20.20;41.10
728;DHT22;347;48.780;9.158;2023-09-18T12:13:31;20.20;41.30
728;DHT22;347;48.780;9.158;2023-09-18T12:16:01;20.20;42.10
728;DHT22;347;48.780;9.158;2023-09-18T12:18:30;20.30;40.70
728;DHT22;347;48.780;9.158;2023-09-18T12:20:57;20.40;41.20
728;DHT22;347;48.780;9.158;2023-09-18T12:23:24;20.40;40.70
728;DHT22;347;48.780;9.158;2023-09-18T12:25:57;20.50;40.80
728;DHT22;347;48.780;9.158;2023-09-18T12:28:25;20.50;40.80
728;DHT22;347;48.780;9.158;2023-09-18T12:30:52;20.60;39.70
728;DHT22;347;48.780;9.158;2023-09-18T12:33:22;20.60;39.60
728;DHT22;347;48.780;9.158;2023-09-18T12:35:47;20.60;40.20
728;DHT22;347;48.780;9.158;2023-09-18T12:38:14;20.60;40.80
728;DHT22;347;48.780;9.158;2023-09-18T12:40:40;20.60;40.20
728;DHT22;347;48.780;9.158;2023-09-18T12:43:06;20.70;38.90
728;DHT22;347;48.780;9.158;2023-09-18T12:45:32;20.70;39.10
728;DHT22;347;48.780;9.158;2023-09-18T12:47:59;20.70;39.20
728;DHT22;347;48.780;9.158;2023-09-18T12:50:25;20.70;38.60
728;DHT22;347;48.780;9.158;2023-09-18T12:52:51;20.80;39.00
728;DHT22;347;48.780;9.158;2023-09-18T12:55:27;20.90;38.50
728;DHT22;347;48.780;9.158;2023-09-18T12:57:53;20.90;38.00
728;DHT22;347;48.780;9.158;2023-09-18T13:00:20;20.90;36.90
728;DHT22;347;48.780;9.158;2023-09-18T13:02:48;21.00;37.30
728;DHT22;347;48.780;9.158;2023-09-18T13:05:19;21.10;35.40
728;DHT22;347;48.780;9.158;2023-09-18T13:07:45;21.10;35.20
728;DHT22;347;48.780;9.158;2023-09-18T13:10:11;21.10;34.70
728;DHT22;347;48.780;9.158;2023-09-18T13:12:49;21.20;34.80
728;DHT22;347;48.780;9.158;2023-09-18T13:15:26;21.30;34.60
728;DHT22;347;48.780;9.158;2023-09-18T13:17:53;21.30;33.70
728;DHT22;347;48.780;9.158;2023-09-18T13:20:26;21.40;32.50
728;DHT22;347;48.780;9.158;2023-09-18T13:22:55;21.40;33.00
728;DHT22;347;48.780;9.158;2023-09-18T13:25:21;21.50;30.50
728;DHT22;347;48.780;9.158;2023-09-18T13:27:48;21.60;30.80
728;DHT22;347;48.780;9.158;2023-09-18T13:30:14;21.60;30.30
728;DHT22;347;48.780;9.158;2023-09-18T13:32:42;21.70;30.00
728;DHT22;347;48.780;9.158;2023-09-18T13:35:09;21.70;29.70
728;DHT22;347;48.780;9.158;2023-09-18T13:37:37;21.80;30.00
728;DHT22;347;48.780;9.158;2023-09-18T13:40:04;21.80;29.00
728;DHT22;347;48.780;9.158;2023-09-18T13:42:33;21.90;29.40
728;DHT22;347;48.780;9.158;2023-09-18T13:44:59;22.10;28.50
728;DHT22;347;48.780;9.158;2023-09-18T13:47:30;22.00;28.00
728;DHT22;347;48.780;9.158;2023-09-18T13:49:56;22.00;28.70
728;DHT22;347;48.780;9.158;2023-09-18T13:52:29;22.00;28.20
728;DHT22;347;48.780;9.158;2023-09-18T13:54:55;22.00;28.10
728;DHT22;347;48.780;9.158;2023-09-18T13:57:21;22.00;28.00
728;DHT22;347;48.780;9.158;2023-09-18T13:59:48;22.10;27.60
728;DHT22;347;48.780;9.158;2023-09-18T14:02:15;22.10;27.80
728;DHT22;347;48.780;9.158;2023-09-18T14:04:41;22.10;27.60
728;DHT22;347;48.780;9.158;2023-09-18T14:07:06;22.20;27.30
728;DHT22;347;48.780;9.158;2023-09-18T14:09:32;22.20;27.20
728;DHT22;347;48.780;9.158;2023-09-18T14:11:58;22.20;26.90
728;DHT22;347;48.780;9.158;2023-09-18T14:14:23;22.20;26.90
728;DHT22;347;48.780;9.158;2023-09-18T14:16:49;22.20;25.90
728;DHT22;347;48.780;9.158;2023-09-18T14:19:19;22.20;26.40
728;DHT22;347;48.780;9.158;2023-09-18T14:21:44;22.20;26.30
728;DHT22;347;48.780;9.158;2023-09-18T14:24:10;22.20;25.50
728;DHT22;347;48.780;9.158;2023-09-18T14:26:36;22.10;25.20
728;DHT22;347;48.780;9.158;2023-09-18T14:29:09;22.10;25.20
728;DHT22;347;48.780;9.158;2023-09-18T14:31:38;22.20;25.60
728;DHT22;347;48.780;9.158;2023-09-18T14:34:04;22.20;25.00
728;DHT22;347;48.780;9.158;2023-09-18T14:36:32;22.20;25.40
728;DHT22;347;48.780;9.158;2023-09-18T14:38:59;22.10;25.50
728;DHT22;347;48.780;9.158;2023-09-18T14:41:26;22.20;25.80
728;DHT22;347;48.780;9.158;2023-09-18T14:43:51;22.10;26.00
728;DHT22;347;48.780;9.158;2023-09-18T14:46:17;22.20;25.60
728;DHT22;347;48.780;9.158;2023-09-18T14:48:46;22.20;25.80
728;DHT22;347;48.780;9.158;2023-09-18T14:51:12;22.20;25.40
728;DHT22;347;48.780;9.158;2023-09-18T14:53:37;22.10;25.20
728;DHT22;347;48.780;9.158;2023-09-18T14:56:03;22.10;25.20
728;DHT22;347;48.780;9.158;2023-09-18T14:58:29;22.20;25.00
728;DHT22;347;48.780;9.158;2023-09-18T15:00:56;22.20;25.10
728;DHT22;347;48.780;9.158;2023-09-18T15:03:22;22.10;24.60
728;DHT22;347;48.780;9.158;2023-09-18T15:05:50;22.10;24.90
728;DHT22;347;48.780;9.158;2023-09-18T15:08:16;22.10;24.90
728;DHT22;347;48.780;9.158;2023-09-18T15:10:43;22.10;24.80
728;DHT22;347;48.780;9.158;2023-09-18T15:13:09;22.10;24.90
728;DHT22;347;48.780;9.158;2023-09-18T15:15:34;22.10;25.10
728;DHT22;347;48.780;9.158;2023-09-18T15:18:01;22.10;25.10
728;DHT22;347;48.780;9.158;2023-09-18T15:20:26;22.10;25.20
728;DHT22;347;48.780;9.158;2023-09-18T15:22:52;22.10;25.00
728;DHT22;347;48.780;9.158;2023-09-18T15:25:18;22.10;25.20
728;DHT22;347;48.780;9.158;2023-09-18T15:27:45;22.10;24.90
728;DHT22;347;48.780;9.158;2023-09-18T15:30:10;22.10;25.00
728;DHT22;347;48.780;9.158;2023-09-18T15:32:50;22.10;25.00
728;DHT22;347;48.780;9.158;2023-09-18T15:35:17;22.10;25.20
728;DHT22;347;48.780;9.158;2023-09-18T15:37:43;22.20;24.90
728;DHT22;347;48.780;9.158;2023-09-18T15:40:09;22.20;24.90
728;DHT22;347;48.780;9.158;2023-09-18T15:42:36;22.20;24.70
728;DHT22;347;48.780;9.158;2023-09-18T15:45:06;22.10;24.60
728;DHT22;347;48.780;9.158;2023-09-18T15:47:33;22.10;24.80
728;DHT22;347;48.780;9.158;2023-09-18T15:49:58;22.00;24.70
728;DHT22;347;48.780;9.158;2023-09-18T15:52:25;22.00;24.90
728;DHT22;347;48.780;9.158;2023-09-18T15:54:50;22.10;24.90
728;DHT22;347;48.780;9.158;2023-09-18T15:57:16;22.10;24.80
728;DHT22;347;48.780;9.158;2023-09-18T15:59:42;22.10;24.80
728;DHT22;347;48.780;9.158;2023-09-18T16:02:08;22.10;24.50
728;DHT22;347;48.780;9.158;2023-09-18T16:04:35;22.10;24.80
728;DHT22;347;48.780;9.158;2023-09-18T16:07:01;22.10;24.60
728;DHT22;347;48.780;9.158;2023-09-18T16:09:27;22.10;25.00
728;DHT22;347;48.780;9.158;2023-09-18T16:11:53;22.00;24.10
728;DHT22;347;48.780;9.158;2023-09-18T16:14:18;22.00;24.40
728;DHT22;347;48.780;9.158;2023-09-18T16:16:46;22.00;24.40
728;DHT22;347;48.780;9.158;2023-09-18T16:19:12;21.90;24.60
728;DHT22;347;48.780;9.158;2023-09-18T16:21:37;21.90;24.60
728;DHT22;347;48.780;9.158;2023-09-18T16:24:03;21.90;24.60
728;DHT22;347;48.780;9.158;2023-09-18T16:26:35;21.80;24.80
728;DHT22;347;48.780;9.158;2023-09-18T16:29:00;21.80;24.90
728;DHT22;347;48.780;9.158;2023-09-18T16:31:26;21.80;24.90
728;DHT22;347;48.780;9.158;2023-09-18T16:33:54;21.80;25.00
728;DHT22;347;48.780;9.158;2023-09-18T16:36:19;21.70;25.10
728;DHT22;347;48.780;9.158;2023-09-18T16:38:45;21.70;25.30